Rough Edge, Mississippi
Current Conditions -  °F | °C
As of 3:53 PM on Tuesday 21 Oct 2014 (Local Time) from KTUP Reporting Station
Clear Clear  
Wind Chill: 76°   Ceiling: Unl
Heat Index: 76°   Visibility: 10mi
Dew Point: 46°   Wind: 13mph
Humidity: 35%   Direction: 30°NNE
Pressure: 30.02"   Gusts: NA
Location:  34.1762°N, 88.9612°W
Report Text: KTUP 212053Z AUTO 03011KT 10SM CLR 24/08 A3002 RMK AO2 SLP164 T02440078 55011 PWINO
Loading
Personal Weather Stations






























Interactive Weather Map
Tropical Storm Tracking
New forecast layout! Learn more

10-Day Weather Forecast

Advertisements
Track Severe Weather on mobile